Latest Weather Observations for Kanagulk

IDV60801

Issued at 4:32 pm EST Tuesday 16 July 2019 (issued every 10 minutes, with the page automatically refreshed every 10 minutes)

About weather observations | Map of weather stations | Latest weather observations for VIC | Other Formats
Station Details ID: 079097 Name: KANAGULK Lat: -37.12 Lon: 141.80 Height: 188.8 m
Data from the previous 72 hours. | See also: Recent months at Kanagulk
Date/Time
EST
Temp
°C
App
Temp
°C
Dew
Point
°C
Rel
Hum
%
Delta-T
°C
Wind Press
QNH
hPa
Press
MSL
hPa
Rain since
9am
mm
Dir  Spd
km/h
Gust
km/h
Spd
kts
Gust
kts
16/04:30pm 12.3 10.1 10.9 91 0.7 WSW 13 20 7 11 1024.4 1024.7 0.2
16/04:00pm 12.2 10.4 10.8 91 0.7 SW 11 15 6 8 1024.3 1024.6 0.2
16/03:30pm 12.7 11.0 11.1 90 0.8 WSW 11 20 6 11 1024.1 1024.5 0.2
16/03:00pm 12.2 10.1 11.3 94 0.5 WSW 13 22 7 12 1024.1 1024.5 0.2
16/02:30pm 11.9 9.9 11.6 98 0.2 SSW 13 20 7 11 1024.4 1024.7 0.2
16/02:00pm 12.7 10.9 12.2 97 0.3 SW 13 20 7 11 1024.5 1024.8 0.2
16/01:30pm 12.5 10.4 12.3 99 0.1 SW 15 22 8 12 1024.9 1025.2 0.2
16/01:00pm 11.6 9.2 11.4 99 0.1 SW 15 28 8 15 1025.3 1025.6 0.2
16/12:30pm 11.3 9.2 11.3 100 0.0 SW 13 20 7 11 1025.6 1025.9 0.2
16/12:00pm 10.7 8.1 10.7 100 0.0 SSW 15 24 8 13 1026.2 1026.6 0.2
16/11:30am 11.2 8.7 11.2 100 0.0 SW 15 26 8 14 1026.4 1026.8 0.2
16/11:00am 10.4 7.7 10.4 100 0.0 WSW 15 24 8 13 1026.6 1027.0 0.2
16/10:30am 10.3 8.0 10.3 100 0.0 SW 13 28 7 15 1026.6 1027.0 0.2
16/10:00am 10.1 7.7 10.1 100 0.0 WSW 13 22 7 12 1026.4 1026.8 0.2
16/09:30am 10.1 8.1 10.1 100 0.0 WSW 11 20 6 11 1026.2 1026.6 0.2
16/09:00am 9.7 8.0 9.7 100 0.0 WSW 9 15 5 8 1026.0 1026.4 0.6
16/08:30am 9.6 7.8 9.6 100 0.0 WSW 9 17 5 9 1025.8 1026.2 0.6
16/08:00am 9.5 7.7 9.5 100 0.0 WSW 9 17 5 9 1025.7 1026.0 0.6
16/07:30am 9.6 7.8 9.6 100 0.0 W 9 15 5 8 1025.5 1025.8 0.2
16/07:00am 9.5 8.1 9.5 100 0.0 WSW 7 13 4 7 1025.5 1025.8 0.2
16/06:30am 9.6 8.2 9.6 100 0.0 WSW 7 15 4 8 1025.5 1025.8 0.2
16/06:00am 9.5 7.7 9.5 100 0.0 WSW 9 15 5 8 1025.3 1025.6 0.2
16/05:30am 9.6 7.5 9.6 100 0.0 WSW 11 20 6 11 1025.0 1025.3 0.2
16/05:00am 9.7 7.2 9.7 100 0.0 WSW 13 26 7 14 1024.9 1025.2 0.2
16/04:30am 9.9 8.2 9.9 100 0.0 WSW 9 19 5 10 1025.0 1025.3 0.2
16/04:00am 10.3 8.0 10.3 100 0.0 WSW 13 24 7 13 1025.2 1025.5 0.2
16/03:30am 10.2 7.5 10.2 100 0.0 SW 15 24 8 13 1025.4 1025.7 0.2
16/03:00am 10.2 7.5 10.2 100 0.0 WSW 15 30 8 16 1025.4 1025.7 0.2
16/02:30am 10.5 8.6 10.5 100 0.0 WSW 11 20 6 11 1025.4 1025.7 0.2
16/02:00am 10.5 8.2 10.5 100 0.0 WSW 13 26 7 14 1025.5 1025.8 0.2
16/01:30am 10.3 8.3 10.3 100 0.0 WSW 11 24 6 13 1025.4 1025.7 0.2
16/01:00am 10.3 8.3 10.3 100 0.0 WSW 11 19 6 10 1025.7 1026.0 0.2
16/12:30am 10.0 7.6 10.0 100 0.0 WSW 13 24 7 13 1026.1 1026.5 0.2
16/12:00am 9.6 8.2 9.6 100 0.0 W 7 15 4 8 1026.3 1026.7 0.2
 
Date/Time
EST
Temp
°C
App
Temp
°C
Dew
Point
°C
Rel
Hum
%
Delta-T
°C
Wind Press
QNH
hPa
Press
MSL
hPa
Rain since
9am
mm
Dir  Spd
km/h
Gust
km/h
Spd
kts
Gust
kts
15/11:30pm 10.3 8.0 10.3 100 0.0 SW 13 22 7 12 1026.5 1026.9 0.2
15/11:00pm 10.3 9.1 10.3 100 0.0 WSW 7 13 4 7 1026.4 1026.8 0.2
15/10:30pm 10.5 9.0 10.5 100 0.0 WSW 9 13 5 7 1026.4 1026.8 0.2
15/10:00pm 10.5 9.0 10.5 100 0.0 WSW 9 17 5 9 1026.6 1027.0 0.2
15/09:30pm 10.6 9.1 10.6 100 0.0 WSW 9 15 5 8 1026.8 1027.2 0.2
15/09:00pm 10.6 9.1 10.6 100 0.0 WSW 9 15 5 8 1026.7 1027.1 0.2
15/08:30pm 10.9 9.1 10.9 100 0.0 WSW 11 20 6 11 1026.9 1027.3 0.2
15/08:00pm 11.2 8.7 11.0 99 0.1 WSW 15 26 8 14 1026.8 1027.2 0.2
15/07:30pm 11.3 8.8 11.1 99 0.1 SW 15 28 8 15 1026.6 1027.0 0.2
15/07:00pm 11.6 9.6 11.4 99 0.1 SW 13 24 7 13 1026.3 1026.7 0.2
15/06:30pm 11.7 9.7 11.5 99 0.1 SW 13 24 7 13 1026.3 1026.7 0.2
15/06:00pm 11.7 10.1 11.5 99 0.1 WSW 11 20 6 11 1025.8 1026.2 0.2
15/05:30pm 11.9 10.3 11.7 99 0.1 WSW 11 19 6 10 1025.7 1026.0 0.2
15/05:00pm 12.1 11.0 11.9 99 0.1 WSW 9 20 5 11 1025.8 1026.2 0.2
15/04:30pm 12.3 10.9 12.1 99 0.1 WSW 11 19 6 10 1025.6 1025.9 0.2
15/04:00pm 12.4 11.0 12.2 99 0.1 WSW 11 20 6 11 1025.5 1025.8 0.2
15/03:30pm 12.7 11.0 12.5 99 0.1 WSW 13 22 7 12 1025.2 1025.5 0.2
15/03:00pm 13.3 12.2 13.1 99 0.1 WSW 11 20 6 11 1025.1 1025.4 0.2
15/02:30pm 12.5 10.8 12.3 99 0.1 WSW 13 20 7 11 1025.3 1025.6 0.2
15/02:00pm 12.3 10.6 12.3 100 0.0 WSW 13 22 7 12 1025.4 1025.7 0.2
15/01:30pm 11.5 9.5 11.5 100 0.0 WSW 13 24 7 13 1025.6 1025.9 0.2
15/01:00pm 11.3 9.2 11.3 100 0.0 WSW 13 24 7 13 1026.0 1026.4 0.0
15/12:30pm 10.9 9.1 10.9 100 0.0 WSW 11 22 6 12 1026.2 1026.6 0.0
15/12:00pm 10.8 9.4 10.8 100 0.0 WSW 9 19 5 10 1026.5 1026.9 0.0
15/11:30am 10.4 8.1 10.4 100 0.0 SW 13 24 7 13 1026.7 1027.1 0.0
15/11:00am 10.1 8.5 10.1 100 0.0 SW 9 17 5 9 1026.8 1027.2 0.0
15/10:30am 10.0 7.6 10.0 100 0.0 SW 13 22 7 12 1026.3 1026.7 0.0
15/10:00am 9.4 6.4 9.4 100 0.0 SW 15 24 8 13 1026.2 1026.6 0.0
15/09:30am 9.2 7.0 9.2 100 0.0 SW 11 24 6 13 1025.8 1026.2 0.0
15/09:00am 8.9 7.0 8.9 100 0.0 WSW 9 13 5 7 1025.5 1025.8 2.0
15/08:30am 8.6 7.0 8.6 100 0.0 SW 7 13 4 7 1025.2 1025.5 2.0
15/08:00am 8.5 6.5 8.5 100 0.0 SW 9 15 5 8 1024.9 1025.2 2.0
15/07:30am 8.5 6.1 8.5 100 0.0 SW 11 19 6 10 1024.7 1025.0 1.8
15/07:00am 8.5 6.1 8.5 100 0.0 SW 11 15 6 8 1024.3 1024.6 1.8
15/06:30am 8.6 5.4 8.6 100 0.0 SW 15 26 8 14 1023.7 1024.1 1.4
15/06:00am 8.6 5.1 8.6 100 0.0 SW 17 28 9 15 1023.3 1023.7 1.4
15/05:30am 8.5 5.3 8.5 100 0.0 SW 15 22 8 12 1023.1 1023.5 1.4
15/05:00am 8.3 4.7 8.3 100 0.0 SW 17 24 9 13 1022.5 1022.9 1.4
15/04:30am 8.4 5.6 8.4 100 0.0 WSW 13 22 7 12 1022.3 1022.7 1.2
15/04:00am 8.4 5.2 8.4 100 0.0 SW 15 22 8 12 1022.4 1022.8 1.2
15/03:30am 8.6 4.5 8.6 100 0.0 SW 20 33 11 18 1022.0 1022.4 1.2
15/03:00am 8.6 4.5 8.5 99 0.0 SW 20 35 11 19 1022.0 1022.4 1.2
15/02:30am 8.8 5.3 8.7 99 0.0 SW 17 28 9 15 1022.0 1022.4 1.2
15/02:00am 8.8 4.9 8.7 99 0.0 SW 19 35 10 19 1021.9 1022.3 1.2
15/01:30am 8.8 4.0 8.7 99 0.0 SW 24 39 13 21 1021.9 1022.3 1.2
15/01:00am 8.5 4.3 8.4 99 0.0 SW 20 35 11 19 1021.7 1022.1 1.2
15/12:30am 8.6 4.7 8.6 100 0.0 SW 19 35 10 19 1021.3 1021.6 1.2
15/12:00am 8.5 4.0 8.5 100 0.0 SW 22 35 12 19 1021.5 1021.9 1.2
 
Date/Time
EST
Temp
°C
App
Temp
°C
Dew
Point
°C
Rel
Hum
%
Delta-T
°C
Wind Press
QNH
hPa
Press
MSL
hPa
Rain since
9am
mm
Dir  Spd
km/h
Gust
km/h
Spd
kts
Gust
kts
14/11:30pm 8.5 4.6 8.5 100 0.0 WSW 19 32 10 17 1021.4 1021.8 1.2
14/11:00pm 8.6 5.1 8.6 100 0.0 WSW 17 32 9 17 1021.7 1022.1 0.6
14/10:30pm 8.5 5.3 8.5 100 0.0 WSW 15 30 8 16 1021.6 1022.0 0.6
14/10:00pm 9.0 5.9 8.9 99 0.0 WSW 15 32 8 17 1021.7 1022.1 0.6
14/09:30pm 8.8 6.0 8.7 99 0.0 W 13 24 7 13 1021.4 1021.8 0.6
14/09:00pm 8.7 5.2 8.6 99 0.0 WSW 17 32 9 17 1021.9 1022.3 0.6
14/08:30pm 9.0 5.9 8.9 99 0.0 WSW 15 22 8 12 1022.0 1022.4 0.6
14/08:00pm 8.9 6.2 8.8 99 0.0 WSW 13 24 7 13 1021.8 1022.2 0.6
14/07:30pm 9.0 5.9 9.0 100 0.0 WSW 15 24 8 13 1021.9 1022.3 0.6
14/07:00pm 9.0 5.6 9.0 100 0.0 WSW 17 28 9 15 1021.8 1022.2 0.6
14/06:30pm 9.1 6.4 9.0 99 0.0 WSW 13 32 7 17 1021.9 1022.3 0.4
14/06:00pm 9.6 7.0 9.5 99 0.1 WSW 13 20 7 11 1022.0 1022.4 0.2
14/05:30pm 10.1 6.0 8.7 91 0.7 WSW 20 35 11 19 1021.7 1022.1 0.2
14/05:00pm 10.6 6.9 7.8 83 1.4 W 17 35 9 19 1021.2 1021.5 0.2
14/04:30pm 10.9 6.2 7.6 80 1.6 WSW 22 41 12 22 1021.5 1021.9 0.2
14/04:00pm 11.2 7.2 8.9 86 1.1 WSW 20 41 11 22 1021.1 1021.4 0.2
14/03:30pm 11.5 7.8 10.1 91 0.7 WSW 20 32 11 17 1020.8 1021.1 0.2
14/03:00pm 11.2 8.1 10.4 95 0.4 W 17 37 9 20 1020.7 1021.0 0.2
14/02:30pm 12.0 8.4 9.9 87 1.1 W 19 39 10 21 1020.9 1021.2 0.2
14/02:00pm 11.5 6.7 8.9 84 1.3 WSW 24 41 13 22 1021.2 1021.5 0.2
14/01:30pm 12.2 8.4 9.0 81 1.6 W 19 33 10 18 1021.3 1021.6 0.2
14/01:00pm 12.3 8.3 9.1 81 1.6 W 20 39 11 21 1021.7 1022.1 0.2
14/12:30pm 11.9 8.5 10.5 91 0.7 W 19 35 10 19 1022.2 1022.6 0.2
14/12:00pm 10.9 7.5 10.7 99 0.1 W 19 32 10 17 1023.0 1023.4 0.2
14/11:30am 10.5 7.0 10.3 99 0.1 W 19 35 10 19 1023.5 1023.9 0.2
14/11:00am 9.6 6.7 9.6 100 0.0 W 15 28 8 15 1023.8 1024.2 0.2
14/10:30am 10.0 6.8 9.9 99 0.1 W 17 24 9 13 1023.6 1024.0 0.2
14/10:00am 9.3 5.9 9.3 100 0.0 W 17 32 9 17 1023.7 1024.1 0.2
14/09:30am 8.9 6.2 8.9 100 0.0 W 13 24 7 13 1023.7 1024.1 0.0
14/09:00am 8.6 6.2 8.6 100 0.0 W 11 19 6 10 1023.4 1023.8 0.4
14/08:30am 8.1 5.2 8.1 100 0.0 WNW 13 20 7 11 1023.1 1023.5 0.4
14/08:00am 7.9 5.3 7.9 100 0.0 W 11 19 6 10 1023.3 1023.7 0.4
14/07:30am 7.6 4.6 7.6 100 0.0 W 13 20 7 11 1023.6 1024.0 0.4
14/07:00am 6.9 4.5 6.9 100 0.0 WNW 9 17 5 9 1023.4 1023.8 0.4
14/06:30am 6.5 3.6 6.5 100 0.0 WNW 11 15 6 8 1023.2 1023.6 0.4
14/06:00am 6.7 4.2 6.7 100 0.0 WNW 9 13 5 7 1023.1 1023.5 0.4
14/05:30am 6.7 4.2 6.7 100 0.0 WNW 9 19 5 10 1023.0 1023.4 0.4
14/05:00am 6.4 3.5 6.4 100 0.0 WNW 11 20 6 11 1023.2 1023.6 0.4
14/04:30am 6.4 3.9 6.4 100 0.0 WNW 9 17 5 9 1023.5 1023.9 0.4
14/04:00am 6.0 3.4 6.0 100 0.0 WNW 9 17 5 9 1023.7 1024.1 0.4
14/03:30am 5.3 2.5 5.3 100 0.0 WNW 9 15 5 8 1024.4 1024.7 0.4
14/03:00am 5.1 2.3 5.0 99 0.0 W 9 13 5 7 1024.8 1025.1 0.4
14/02:30am 5.4 2.2 5.3 99 0.0 W 11 20 6 11 1025.1 1025.4 0.4
14/02:00am 4.7 1.8 4.6 99 0.0 W 9 15 5 8 1025.3 1025.6 0.4
14/01:30am 4.8 2.3 4.8 100 0.0 W 7 15 4 8 1025.4 1025.7 0.4
14/01:00am 4.3 1.9 4.2 99 0.0 WNW 6 9 3 5 1025.5 1025.8 0.2
14/12:30am 4.6 1.7 4.5 99 0.0 W 9 13 5 7 1025.7 1026.0 0.2
14/12:00am 4.2 1.2 4.1 99 0.0 WNW 9 13 5 7 1025.9 1026.3 0.2
 
Date/Time
EST
Temp
°C
App
Temp
°C
Dew
Point
°C
Rel
Hum
%
Delta-T
°C
Wind Press
QNH
hPa
Press
MSL
hPa
Rain since
9am
mm
Dir  Spd
km/h
Gust
km/h
Spd
kts
Gust
kts
13/11:30pm 4.7 1.8 4.6 99 0.0 W 9 15 5 8 1026.0 1026.4 0.2
13/11:00pm 4.1 1.1 4.0 99 0.0 W 9 13 5 7 1026.0 1026.4 0.2
13/10:30pm 3.8 1.7 3.7 99 0.0 W 4 9 2 5 1026.2 1026.6 0.2
13/10:00pm 4.6 2.6 4.5 99 0.0 W 4 9 2 5 1026.4 1026.8 0.2
13/09:30pm 5.0 3.1 4.9 99 0.0 W 4 7 2 4 1026.2 1026.6 0.2
13/09:00pm 5.8 3.1 5.7 99 0.0 WSW 9 15 5 8 1026.2 1026.6 0.2
13/08:30pm 4.6 2.2 4.5 99 0.0 WSW 6 9 3 5 1026.0 1026.4 0.2
13/08:00pm 5.2 3.3 5.1 99 0.0 W 4 9 2 5 1025.5 1025.8 0.2
13/07:30pm 6.3 3.7 6.2 99 0.0 SW 9 15 5 8 1025.4 1025.7 0.2
13/07:00pm 6.2 4.5 5.8 97 0.2 SW 4 9 2 5 1025.1 1025.4 0.2
13/06:30pm 6.1 3.7 4.4 89 0.7 WSW 6 11 3 6 1024.6 1024.9 0.2
13/06:00pm 7.3 3.2 4.6 83 1.2 SW 15 30 8 16 1023.9 1024.3 0.2
13/05:30pm 7.8 3.4 4.6 80 1.4 SW 17 26 9 14 1023.5 1023.9 0.2
13/05:00pm 8.5 3.7 4.7 77 1.7 SW 19 32 10 17 1023.0 1023.4 0.2

Other formats

Comma delimited format used in spreadsheet applications
http://www.bom.gov.au/fwo/IDV60801/IDV60801.95827.axf

JavaScript Object Notation format (JSON) in row-major order
http://www.bom.gov.au/fwo/IDV60801/IDV60801.95827.json

Data quality

Most of these data are generated automatically and are frequently updated. Quality checks on data are not normally performed. It is possible for incorrect values to appear. Refer to information at About Latest Weather Observations and please check the disclaimer before using these data.